Time;durP1;ratioP1;P1;durP2;ratioP2;P2;SDS_P1;SDS_P2;PMS_P1;PMS_P2;Temp;Humidity;BMP_temperature;BMP_pressure;BME280_temperature;BME280_humidity;BME280_pressure;Samples;Min_cycle;Max_cycle;Signal;HPM_P1;HPM_P2
2023/04/27 00:02:05;;;;;;;2.80;2.60;;;8.70;95.10;;;;;;5073573;28;20169;-74
2023/04/27 00:04:31;;;;;;;2.90;2.70;;;8.70;95.20;;;;;;5072111;28;20566;-75
2023/04/27 00:06:57;;;;;;;3.50;2.50;;;8.60;95.30;;;;;;5073454;28;20186;-74
2023/04/27 00:09:22;;;;;;;5.10;2.87;;;8.60;95.20;;;;;;5073132;28;20176;-74
2023/04/27 00:11:48;;;;;;;2.43;2.23;;;8.50;95.40;;;;;;5072864;28;20268;-76
2023/04/27 00:14:14;;;;;;;2.90;2.70;;;8.50;95.50;;;;;;5074546;28;20182;-74
2023/04/27 00:16:40;;;;;;;2.50;2.40;;;8.40;95.40;;;;;;5077783;28;20175;-74
2023/04/27 00:19:07;;;;;;;2.87;2.60;;;8.40;95.40;;;;;;5077543;28;20167;-74
2023/04/27 00:21:33;;;;;;;3.50;2.30;;;8.40;95.50;;;;;;5077967;28;20258;-77
2023/04/27 00:24:00;;;;;;;2.90;2.60;;;8.40;95.50;;;;;;5073818;28;20214;-74
2023/04/27 00:26:26;;;;;;;3.10;2.60;;;8.40;95.60;;;;;;5073552;28;20254;-74
2023/04/27 00:28:52;;;;;;;2.70;2.50;;;8.40;95.60;;;;;;5073337;28;20202;-74
2023/04/27 00:31:18;;;;;;;2.17;2.07;;;8.50;95.70;;;;;;5073419;28;20180;-74
2023/04/27 00:33:43;;;;;;;2.23;2.13;;;8.50;95.40;;;;;;5072885;28;20276;-74
2023/04/27 00:36:09;;;;;;;2.90;2.70;;;8.50;95.50;;;;;;5072886;28;20166;-74
2023/04/27 00:38:35;;;;;;;2.73;2.53;;;8.40;95.70;;;;;;5073242;28;20186;-75
2023/04/27 00:41:06;;;;;;;2.97;2.70;;;8.40;95.80;;;;;;5072863;28;20178;-75
2023/04/27 00:43:33;;;;;;;5.80;2.77;;;8.40;95.90;;;;;;5075419;28;20228;-75
2023/04/27 00:45:59;;;;;;;4.17;2.80;;;9.20;96.30;;;;;;5074578;28;20178;-75
2023/04/27 00:48:25;;;;;;;3.77;2.60;;;8.40;95.90;;;;;;5073065;28;20232;-74
2023/04/27 00:50:51;;;;;;;3.10;2.67;;;8.40;96.00;;;;;;5072827;28;20261;-73
2023/04/27 00:53:18;;;;;;;4.17;2.87;;;8.50;95.90;;;;;;5072903;28;20177;-75
2023/04/27 00:55:44;;;;;;;4.13;2.63;;;8.40;95.90;;;;;;5072452;28;20174;-75
2023/04/27 00:58:10;;;;;;;2.80;2.60;;;8.40;96.10;;;;;;5072471;28;20730;-75
2023/04/27 01:00:36;;;;;;;2.57;2.47;;;8.40;96.00;;;;;;5072494;28;20522;-75
2023/04/27 01:03:03;;;;;;;2.93;2.73;;;8.40;96.00;;;;;;5072371;28;20202;-74
2023/04/27 01:05:29;;;;;;;2.70;2.53;;;8.40;96.10;;;;;;5072250;28;20186;-74
2023/04/27 01:07:55;;;;;;;3.27;2.60;;;8.40;96.20;;;;;;5072914;28;20171;-75
2023/04/27 01:10:20;;;;;;;4.20;2.60;;;8.40;96.30;;;;;;5073131;28;20171;-75
2023/04/27 01:12:46;;;;;;;3.20;2.57;;;8.30;96.30;;;;;;5072886;28;20174;-75
2023/04/27 01:15:12;;;;;;;2.77;2.63;;;8.40;96.30;;;;;;5075907;28;20185;-76
2023/04/27 01:17:38;;;;;;;2.60;2.40;;;8.40;96.20;;;;;;5073019;28;20170;-74
2023/04/27 01:20:06;;;;;;;4.97;2.67;;;8.30;96.30;;;;;;5073423;28;20180;-74
2023/04/27 01:22:32;;;;;;;3.10;2.90;;;8.30;96.30;;;;;;5075245;28;20255;-74
2023/04/27 01:24:57;;;;;;;2.50;2.30;;;8.40;96.20;;;;;;5077180;28;20270;-74
2023/04/27 01:27:24;;;;;;;3.27;2.43;;;8.30;96.00;;;;;;5079094;28;20664;-74
2023/04/27 01:29:50;;;;;;;3.97;2.40;;;8.30;96.10;;;;;;5076563;28;20270;-73
2023/04/27 01:32:16;;;;;;;2.47;2.20;;;8.30;96.20;;;;;;5076081;28;20253;-75
2023/04/27 01:34:41;;;;;;;2.83;2.53;;;8.30;96.30;;;;;;5075829;28;20603;-75
2023/04/27 01:37:07;;;;;;;2.60;2.40;;;8.20;96.40;;;;;;5075080;28;20177;-73
2023/04/27 01:39:33;;;;;;;2.70;2.50;;;8.20;96.50;;;;;;5082285;28;20211;-75
2023/04/27 01:41:58;;;;;;;2.50;2.40;;;8.20;96.40;;;;;;5085563;28;20189;-74
2023/04/27 01:44:24;;;;;;;3.13;2.90;;;8.20;96.60;;;;;;5084145;28;20228;-75
2023/04/27 01:46:50;;;;;;;2.70;2.60;;;8.20;96.50;;;;;;5077411;28;20179;-73
2023/04/27 01:49:16;;;;;;;2.30;2.20;;;8.20;96.50;;;;;;5096112;28;20208;-73
2023/04/27 01:51:42;;;;;;;2.97;2.57;;;8.20;96.60;;;;;;5095893;28;20195;-74
2023/04/27 01:54:07;;;;;;;5.20;2.37;;;8.10;96.60;;;;;;5088428;28;20346;-75
2023/04/27 01:56:33;;;;;;;2.50;2.30;;;8.10;96.70;;;;;;5086425;28;20578;-74
2023/04/27 01:58:59;;;;;;;2.60;2.40;;;8.10;96.60;;;;;;5065280;28;20186;-75
2023/04/27 02:01:24;;;;;;;3.70;2.50;;;8.10;96.70;;;;;;5081952;28;20189;-75
2023/04/27 02:03:50;;;;;;;2.17;2.03;;;8.10;96.70;;;;;;5078748;28;20206;-73
2023/04/27 02:06:16;;;;;;;3.27;2.57;;;8.10;96.80;;;;;;5075370;28;20182;-74
2023/04/27 02:08:42;;;;;;;3.13;2.60;;;8.00;96.80;;;;;;5075083;28;20633;-74
2023/04/27 02:11:08;;;;;;;2.80;2.40;;;7.90;96.90;;;;;;5061658;28;20643;-74
2023/04/27 02:13:34;;;;;;;3.00;2.80;;;7.80;96.90;;;;;;5076940;28;20544;-74
2023/04/27 02:16:02;;;;;;;2.40;2.30;;;7.80;97.00;;;;;;5092059;28;20213;-74
2023/04/27 02:18:28;;;;;;;2.87;2.57;;;7.80;97.00;;;;;;5060568;28;20197;-73
2023/04/27 02:20:53;;;;;;;2.47;2.27;;;7.80;97.00;;;;;;5063590;28;20719;-74
2023/04/27 02:23:19;;;;;;;2.50;2.40;;;7.80;97.20;;;;;;5055086;28;20228;-73
2023/04/27 02:25:45;;;;;;;3.10;2.40;;;7.70;97.30;;;;;;5054950;28;20170;-74
2023/04/27 02:28:12;;;;;;;2.33;2.17;;;7.80;97.30;;;;;;5060977;28;20528;-74
2023/04/27 02:30:38;;;;;;;5.00;2.63;;;7.70;97.20;;;;;;5057473;28;20317;-74
2023/04/27 02:33:04;;;;;;;2.60;2.50;;;7.80;97.40;;;;;;5054761;28;20190;-75
2023/04/27 02:35:32;;;;;;;2.63;2.20;;;7.80;97.20;;;;;;5055418;28;20254;-74
2023/04/27 02:37:57;;;;;;;2.87;2.67;;;7.70;97.20;;;;;;5053121;28;20651;-74
2023/04/27 02:40:23;;;;;;;2.87;2.67;;;7.70;97.20;;;;;;5054792;28;20185;-74
2023/04/27 02:42:49;;;;;;;2.80;2.70;;;7.70;97.40;;;;;;5054596;28;20237;-74
2023/04/27 02:45:15;;;;;;;3.40;2.70;;;7.70;97.60;;;;;;5055150;28;20560;-73
2023/04/27 02:47:43;;;;;;;3.13;2.83;;;7.70;97.80;;;;;;5055707;28;20224;-74
2023/04/27 02:50:09;;;;;;;3.17;2.70;;;7.70;97.70;;;;;;5057913;28;20226;-74
2023/04/27 02:52:34;;;;;;;5.03;2.50;;;7.70;97.60;;;;;;5054614;28;20178;-74
2023/04/27 02:55:00;;;;;;;2.83;2.47;;;7.70;97.60;;;;;;5053224;28;20170;-73
2023/04/27 02:57:27;;;;;;;2.80;2.60;;;7.70;97.90;;;;;;5054577;28;20220;-75
2023/04/27 02:59:52;;;;;;;4.70;2.90;;;7.70;97.70;;;;;;5058039;28;20181;-74
2023/04/27 03:02:18;;;;;;;2.67;2.47;;;7.70;97.70;;;;;;5056139;28;20188;-76
2023/04/27 03:04:44;;;;;;;5.37;2.57;;;7.60;97.80;;;;;;5055458;28;20203;-74
2023/04/27 03:07:11;;;;;;;4.03;2.60;;;7.70;98.00;;;;;;5055691;28;20601;-74
2023/04/27 03:09:37;;;;;;;2.70;2.50;;;7.60;98.10;;;;;;5059498;28;20501;-76
2023/04/27 03:12:03;;;;;;;4.20;2.70;;;7.50;98.30;;;;;;5054717;28;20660;-74
2023/04/27 03:14:29;;;;;;;3.83;3.07;;;7.50;98.30;;;;;;5054516;28;20257;-75
2023/04/27 03:16:56;;;;;;;5.03;2.67;;;7.40;98.30;;;;;;5054317;28;20677;-73
2023/04/27 03:19:22;;;;;;;3.00;2.70;;;7.40;98.50;;;;;;5053245;28;20668;-73
2023/04/27 03:21:48;;;;;;;3.03;2.67;;;7.30;98.50;;;;;;5057185;28;20251;-74
2023/04/27 03:24:13;;;;;;;3.03;2.70;;;7.30;98.40;;;;;;5054019;28;20220;-74
2023/04/27 03:26:39;;;;;;;3.13;2.63;;;7.30;98.40;;;;;;5054104;28;20170;-75
2023/04/27 03:29:05;;;;;;;4.00;2.50;;;7.40;98.40;;;;;;5053883;28;20190;-76
2023/04/27 03:31:32;;;;;;;3.33;2.50;;;7.40;98.20;;;;;;5053661;28;20171;-75
2023/04/27 03:33:58;;;;;;;3.87;2.60;;;7.50;98.10;;;;;;5052394;28;20728;-74
2023/04/27 03:36:25;;;;;;;2.73;2.50;;;7.40;98.30;;;;;;5053967;28;20208;-74
2023/04/27 03:38:51;;;;;;;5.23;2.67;;;7.40;98.00;;;;;;5057364;28;20617;-74
2023/04/27 03:41:17;;;;;;;3.03;2.83;;;7.30;97.80;;;;;;5073891;28;20200;-75
2023/04/27 03:43:42;;;;;;;3.40;2.70;;;7.30;97.90;;;;;;5055000;28;20241;-74
2023/04/27 03:46:08;;;;;;;3.50;2.63;;;7.30;98.20;;;;;;5082685;28;20256;-74
2023/04/27 03:48:34;;;;;;;4.93;2.80;;;7.40;97.90;;;;;;5078503;28;20186;-75
2023/04/27 03:51:00;;;;;;;3.13;2.67;;;7.40;97.90;;;;;;5073799;28;20174;-74
2023/04/27 03:53:26;;;;;;;2.90;2.70;;;7.40;97.80;;;;;;5073846;28;20265;-75
2023/04/27 03:55:52;;;;;;;2.77;2.57;;;7.40;97.60;;;;;;5073594;28;20322;-74
2023/04/27 03:58:17;;;;;;;2.57;2.40;;;7.40;97.60;;;;;;5073872;28;20177;-74
2023/04/27 04:00:43;;;;;;;2.67;2.47;;;7.40;97.70;;;;;;5073761;28;20545;-75
2023/04/27 04:03:10;;;;;;;2.43;2.33;;;7.50;97.60;;;;;;5073119;28;20286;-75
2023/04/27 04:05:36;;;;;;;2.50;2.30;;;7.50;97.40;;;;;;5073008;28;20642;-73
2023/04/27 04:08:02;;;;;;;3.23;2.70;;;7.60;97.70;;;;;;5072829;28;20171;-74
2023/04/27 04:10:28;;;;;;;3.43;3.03;;;7.60;97.70;;;;;;5073286;28;20645;-74
2023/04/27 04:12:53;;;;;;;2.60;2.47;;;7.50;97.50;;;;;;5074081;28;20266;-75
2023/04/27 04:15:19;;;;;;;3.17;2.87;;;7.60;97.60;;;;;;5073270;28;20179;-74
2023/04/27 04:17:46;;;;;;;2.80;2.60;;;7.50;97.60;;;;;;5072895;28;20587;-75
2023/04/27 04:20:14;;;;;;;3.83;2.47;;;7.50;97.80;;;;;;5073534;28;20642;-74
2023/04/27 04:22:43;;;;;;;3.53;2.80;;;7.60;98.00;;;;;;5077528;28;20195;-75
2023/04/27 04:25:09;;;;;;;3.13;2.50;;;7.60;97.60;;;;;;5073810;28;20209;-74
2023/04/27 04:27:35;;;;;;;2.57;2.40;;;7.60;97.50;;;;;;5073178;28;20236;-74
2023/04/27 04:30:04;;;;;;;4.37;2.53;;;7.60;97.70;;;;;;5075571;28;20560;-74
2023/04/27 04:32:30;;;;;;;3.17;2.97;;;7.60;97.70;;;;;;5073332;28;20163;-74
2023/04/27 04:34:56;;;;;;;4.97;3.10;;;7.60;97.80;;;;;;5072868;28;20227;-73
2023/04/27 04:37:22;;;;;;;4.23;3.00;;;7.60;97.70;;;;;;5072783;28;20175;-75
2023/04/27 04:39:48;;;;;;;5.70;3.30;;;7.70;97.60;;;;;;5074129;28;20250;-74
2023/04/27 04:42:14;;;;;;;3.53;2.97;;;7.70;97.50;;;;;;5084282;28;20983;-75
2023/04/27 04:44:41;;;;;;;3.67;3.27;;;7.70;97.40;;;;;;5074723;28;20194;-75
2023/04/27 04:47:09;;;;;;;2.83;2.63;;;7.70;97.40;;;;;;5071754;28;20175;-74
2023/04/27 04:49:35;;;;;;;4.07;2.83;;;7.60;97.40;;;;;;5072646;28;20298;-76
2023/04/27 04:52:00;;;;;;;5.90;3.13;;;7.70;97.50;;;;;;5072826;28;20189;-75
2023/04/27 04:54:26;;;;;;;4.93;2.47;;;7.70;97.40;;;;;;5072445;28;20181;-74
2023/04/27 04:56:52;;;;;;;9.27;3.17;;;7.80;97.40;;;;;;5072560;28;20208;-74
2023/04/27 04:59:18;;;;;;;2.80;2.60;;;7.90;97.30;;;;;;5072546;28;20167;-72
2023/04/27 05:01:43;;;;;;;4.33;2.60;;;8.00;97.10;;;;;;5072772;28;20742;-74
2023/04/27 05:04:09;;;;;;;2.67;2.47;;;7.90;97.00;;;;;;5072990;28;20213;-75
2023/04/27 05:06:35;;;;;;;3.63;2.73;;;7.90;97.00;;;;;;5072837;28;20737;-75
2023/04/27 05:09:01;;;;;;;3.10;2.80;;;8.00;96.90;;;;;;5072629;28;20190;-75
2023/04/27 05:11:26;;;;;;;2.97;2.50;;;8.10;96.80;;;;;;5072400;28;20534;-74
2023/04/27 05:13:52;;;;;;;3.13;2.83;;;8.10;96.70;;;;;;5072778;28;20175;-76
2023/04/27 05:16:18;;;;;;;4.50;3.20;;;8.20;96.60;;;;;;5073002;28;20189;-74
2023/04/27 05:18:43;;;;;;;3.13;2.83;;;8.30;96.50;;;;;;5072710;28;20625;-75
2023/04/27 05:21:14;;;;;;;3.40;2.87;;;8.30;96.50;;;;;;5072678;28;20232;-75
2023/04/27 05:23:39;;;;;;;3.03;2.83;;;8.40;96.50;;;;;;5072999;28;20304;-75
2023/04/27 05:26:15;;;;;;;6.23;3.10;;;8.40;96.20;;;;;;5072635;28;20195;-74
2023/04/27 05:28:42;;;;;;;3.27;2.67;;;8.50;96.20;;;;;;5082707;28;20174;-74
2023/04/27 05:31:08;;;;;;;6.30;2.90;;;8.70;96.00;;;;;;5083302;28;20185;-75
2023/04/27 05:33:33;;;;;;;3.63;3.20;;;8.70;96.00;;;;;;5072870;28;20194;-73
2023/04/27 05:35:59;;;;;;;4.27;3.27;;;8.70;96.00;;;;;;5072560;28;20216;-74
2023/04/27 05:38:25;;;;;;;2.77;2.57;;;8.60;95.90;;;;;;5072919;28;20171;-75
2023/04/27 05:40:55;;;;;;;4.77;2.83;;;8.70;95.90;;;;;;5072751;28;20179;-75
2023/04/27 05:43:21;;;;;;;3.20;3.00;;;8.80;96.00;;;;;;5072605;28;20287;-74
2023/04/27 05:45:47;;;;;;;3.67;3.30;;;8.90;95.60;;;;;;5072731;28;20187;-74
2023/04/27 05:48:13;;;;;;;3.13;2.83;;;8.90;95.40;;;;;;5072129;28;20174;-75
2023/04/27 05:50:39;;;;;;;3.20;3.00;;;8.90;95.40;;;;;;5072598;28;20175;-75
2023/04/27 05:53:04;;;;;;;3.13;2.90;;;9.00;95.20;;;;;;5072695;28;20684;-74
2023/04/27 05:55:30;;;;;;;4.37;2.80;;;9.00;95.30;;;;;;5074495;28;20174;-73
2023/04/27 05:57:56;;;;;;;3.90;2.60;;;9.10;95.30;;;;;;5075797;28;20225;-74
2023/04/27 06:00:22;;;;;;;3.40;3.10;;;9.20;94.90;;;;;;5079862;28;20262;-74
2023/04/27 06:02:48;;;;;;;3.00;2.63;;;9.30;94.80;;;;;;5085234;28;20166;-76
2023/04/27 06:05:14;;;;;;;3.20;3.00;;;9.30;94.30;;;;;;5054870;28;20278;-75
2023/04/27 06:07:42;;;;;;;2.90;2.63;;;9.30;94.30;;;;;;5076156;28;20210;-75
2023/04/27 06:10:09;;;;;;;4.20;3.17;;;9.50;94.40;;;;;;5076288;28;20274;-76
2023/04/27 06:12:34;;;;;;;3.30;2.80;;;9.60;93.80;;;;;;5074498;28;20227;-74
2023/04/27 06:15:06;;;;;;;3.03;2.83;;;9.70;94.40;;;;;;5075678;28;20182;-73
2023/04/27 06:17:33;;;;;;;3.00;2.80;;;9.80;93.40;;;;;;5074035;28;20183;-74
2023/04/27 06:19:59;;;;;;;3.10;2.90;;;9.80;92.60;;;;;;5075394;28;20510;-74
2023/04/27 06:22:25;;;;;;;5.97;3.30;;;9.80;92.20;;;;;;5074572;28;20191;-73
2023/04/27 06:24:50;;;;;;;3.37;2.87;;;9.70;92.30;;;;;;5075195;28;20219;-74
2023/04/27 06:27:16;;;;;;;3.17;2.90;;;9.90;92.90;;;;;;5075242;28;20171;-75
2023/04/27 06:29:42;;;;;;;3.33;2.90;;;9.90;92.50;;;;;;5076693;28;20167;-75
2023/04/27 06:32:07;;;;;;;3.27;2.97;;;10.10;92.20;;;;;;5081817;28;20179;-74
2023/04/27 06:34:34;;;;;;;4.30;3.07;;;10.40;92.30;;;;;;5079329;28;20180;-74
2023/04/27 06:37:00;;;;;;;2.80;2.60;;;10.50;91.90;;;;;;5078150;28;20174;-75
2023/04/27 06:39:27;;;;;;;3.10;2.90;;;10.70;91.30;;;;;;5075769;28;20169;-74
2023/04/27 06:41:54;;;;;;;3.00;2.80;;;10.80;91.30;;;;;;5074112;28;20551;-74
2023/04/27 06:44:19;;;;;;;4.00;3.10;;;11.00;90.80;;;;;;5075138;28;20223;-75
2023/04/27 06:46:45;;;;;;;3.27;2.90;;;10.80;90.10;;;;;;5075076;28;20182;-73
2023/04/27 06:49:11;;;;;;;3.30;2.77;;;10.80;90.40;;;;;;5075057;28;20306;-74
2023/04/27 06:51:36;;;;;;;2.93;2.77;;;10.90;90.30;;;;;;5074633;28;20201;-76
2023/04/27 06:54:03;;;;;;;5.60;2.80;;;10.90;90.20;;;;;;5075120;28;20172;-74
2023/04/27 06:56:28;;;;;;;3.00;2.80;;;11.00;90.50;;;;;;5074806;28;20186;-73
2023/04/27 06:58:55;;;;;;;5.67;3.03;;;11.00;91.10;;;;;;5073400;28;20180;-75
2023/04/27 07:01:20;;;;;;;3.03;2.60;;;11.10;90.80;;;;;;5074989;28;20195;-74
2023/04/27 07:03:46;;;;;;;3.43;2.83;;;11.20;91.10;;;;;;5074680;28;20270;-75
2023/04/27 07:06:12;;;;;;;2.80;2.60;;;11.20;88.00;;;;;;5074649;28;20506;-75
2023/04/27 07:08:37;;;;;;;3.97;2.70;;;11.20;90.00;;;;;;5075007;28;20178;-76
2023/04/27 07:11:03;;;;;;;2.80;2.60;;;11.30;88.00;;;;;;5074826;28;20171;-75
2023/04/27 07:13:29;;;;;;;3.83;2.73;;;11.40;90.20;;;;;;5087686;28;20167;-75
2023/04/27 07:15:59;;;;;;;2.83;2.63;;;11.40;90.20;;;;;;5082991;28;20684;-74
2023/04/27 07:18:26;;;;;;;3.63;2.60;;;11.40;86.20;;;;;;5076549;28;20183;-75
2023/04/27 07:20:53;;;;;;;2.90;2.70;;;11.50;86.40;;;;;;5075777;28;20186;-74
2023/04/27 07:23:19;;;;;;;2.80;2.60;;;11.50;87.90;;;;;;5077179;28;20214;-75
2023/04/27 07:25:45;;;;;;;2.97;2.77;;;11.50;89.00;;;;;;5076783;28;20183;-74
2023/04/27 07:28:11;;;;;;;6.13;2.93;;;11.50;89.40;;;;;;5077064;28;20221;-74
2023/04/27 07:30:38;;;;;;;2.87;2.67;;;11.40;85.00;;;;;;5079041;28;20179;-74
2023/04/27 07:33:04;;;;;;;3.00;2.73;;;11.20;85.90;;;;;;5077443;28;20168;-74
2023/04/27 07:35:30;;;;;;;2.77;2.60;;;11.30;86.30;;;;;;5074343;28;20237;-75
2023/04/27 07:37:56;;;;;;;2.43;2.33;;;11.30;85.50;;;;;;5074755;28;20168;-74
2023/04/27 07:40:23;;;;;;;2.50;2.40;;;11.20;85.80;;;;;;5077429;28;20255;-76
2023/04/27 07:42:48;;;;;;;3.30;2.93;;;11.30;85.70;;;;;;5076851;28;20633;-75
2023/04/27 07:45:16;;;;;;;4.33;2.50;;;11.20;82.80;;;;;;5074141;28;20293;-74
2023/04/27 07:47:43;;;;;;;5.43;2.57;;;11.10;83.20;;;;;;5073660;28;20165;-75
2023/04/27 07:50:10;;;;;;;3.77;2.37;;;11.20;84.40;;;;;;5073950;28;20539;-74
2023/04/27 07:52:36;;;;;;;3.07;2.87;;;11.40;84.10;;;;;;5073348;28;20675;-74
2023/04/27 07:55:02;;;;;;;2.67;2.47;;;11.40;82.60;;;;;;5073899;28;20175;-74
2023/04/27 07:57:28;;;;;;;2.30;2.20;;;11.20;82.10;;;;;;5073457;28;20201;-77
2023/04/27 07:59:56;;;;;;;2.73;2.53;;;11.30;82.80;;;;;;5072558;28;20210;-74
2023/04/27 08:02:22;;;;;;;3.43;2.60;;;11.40;85.00;;;;;;5073561;28;20170;-76
2023/04/27 08:04:49;;;;;;;2.63;2.50;;;11.60;84.70;;;;;;5073731;28;20199;-76
2023/04/27 08:07:16;;;;;;;3.30;3.00;;;11.60;83.40;;;;;;5073490;28;20268;-75
2023/04/27 08:09:42;;;;;;;3.20;2.60;;;11.60;83.70;;;;;;5073501;28;20253;-75
2023/04/27 08:12:07;;;;;;;3.83;2.47;;;11.60;83.70;;;;;;5073226;28;20257;-75
2023/04/27 08:14:34;;;;;;;2.33;2.23;;;11.70;83.80;;;;;;5073715;28;20246;-74
2023/04/27 08:17:00;;;;;;;5.33;2.47;;;11.80;85.00;;;;;;5073528;28;20620;-76
2023/04/27 08:19:25;;;;;;;3.70;2.90;;;11.90;84.70;;;;;;5077235;28;20239;-73
2023/04/27 08:21:51;;;;;;;2.40;2.30;;;12.00;85.20;;;;;;5076977;28;20191;-75
2023/04/27 08:24:18;;;;;;;4.57;2.47;;;12.00;85.40;;;;;;5075084;28;20205;-75
2023/04/27 08:26:43;;;;;;;3.33;2.63;;;12.00;84.10;;;;;;5074232;28;20186;-74
2023/04/27 08:29:09;;;;;;;4.33;2.90;;;12.00;84.30;;;;;;5073497;28;20215;-76
2023/04/27 08:31:35;;;;;;;3.27;2.97;;;12.20;84.00;;;;;;5071500;28;20174;-74
2023/04/27 08:34:01;;;;;;;6.33;2.73;;;12.20;83.50;;;;;;5073359;28;20183;-74
2023/04/27 08:36:27;;;;;;;7.00;2.90;;;12.10;83.90;;;;;;5073577;28;20178;-75
2023/04/27 08:38:53;;;;;;;4.77;2.80;;;12.10;83.50;;;;;;5073534;28;20228;-74
2023/04/27 08:41:22;;;;;;;2.70;2.53;;;12.20;83.30;;;;;;5078461;28;20167;-75
2023/04/27 08:43:52;;;;;;;2.50;2.40;;;12.10;83.30;;;;;;5080994;28;20540;-77
2023/04/27 08:46:22;;;;;;;3.23;2.93;;;12.10;82.60;;;;;;5075466;28;20166;-73
2023/04/27 08:48:55;;;;;;;2.53;2.33;;;12.10;83.80;;;;;;5081441;28;20163;-75
2023/04/27 08:51:21;;;;;;;4.23;2.60;;;12.20;83.40;;;;;;5083475;28;20167;-75
2023/04/27 08:53:50;;;;;;;3.23;2.60;;;12.30;84.70;;;;;;5077023;28;20237;-75
2023/04/27 08:56:17;;;;;;;3.80;2.80;;;12.50;83.50;;;;;;5080688;28;20194;-76
2023/04/27 08:58:43;;;;;;;3.33;3.03;;;12.40;83.90;;;;;;5078424;28;20448;-75
2023/04/27 09:01:09;;;;;;;3.07;2.87;;;12.50;84.30;;;;;;5075776;28;20179;-76
2023/04/27 09:03:36;;;;;;;2.87;2.67;;;12.60;84.40;;;;;;5075018;28;20602;-75
2023/04/27 09:06:04;;;;;;;3.07;2.87;;;12.50;87.30;;;;;;5072474;28;20172;-74
2023/04/27 09:08:50;;;;;;;3.40;2.93;;;12.50;84.40;;;;;;5073145;28;20195;-75
2023/04/27 09:11:28;;;;;;;3.27;2.70;;;12.50;85.30;;;;;;5073165;28;20549;-75
2023/04/27 09:13:54;;;;;;;2.80;2.53;;;12.60;83.80;;;;;;5073099;28;20179;-74
2023/04/27 09:16:25;;;;;;;2.70;2.50;;;12.60;84.30;;;;;;5075333;28;20177;-73
2023/04/27 09:18:51;;;;;;;2.90;2.77;;;12.70;86.90;;;;;;5073105;28;20207;-74
2023/04/27 09:21:30;;;;;;;5.30;2.60;;;12.80;86.00;;;;;;5073552;28;20258;-75
2023/04/27 09:23:56;;;;;;;4.17;3.10;;;12.80;87.20;;;;;;5074817;28;20209;-74
2023/04/27 09:26:26;;;;;;;2.83;2.63;;;13.40;87.10;;;;;;5073060;28;20179;-75
2023/04/27 09:28:56;;;;;;;2.93;2.60;;;13.00;87.30;;;;;;5071142;28;20213;-75
2023/04/27 09:31:36;;;;;;;6.10;2.50;;;13.20;86.60;;;;;;5071255;28;20171;-74
2023/04/27 09:34:02;;;;;;;4.03;2.93;;;13.30;87.90;;;;;;5072938;28;20174;-75
2023/04/27 09:36:31;;;;;;;2.70;2.50;;;13.40;86.40;;;;;;5072766;28;20179;-74
2023/04/27 09:38:57;;;;;;;4.17;2.93;;;13.40;85.50;;;;;;5072345;28;20181;-75
2023/04/27 09:41:24;;;;;;;3.00;2.70;;;13.50;85.90;;;;;;5072255;28;20188;-76
2023/04/27 09:43:51;;;;;;;3.70;2.77;;;13.50;86.70;;;;;;5075262;28;20252;-76
2023/04/27 09:46:18;;;;;;;2.90;2.70;;;13.50;86.00;;;;;;5076498;28;20171;-76
2023/04/27 09:48:44;;;;;;;3.90;2.80;;;13.50;85.70;;;;;;5076313;28;20183;-74
2023/04/27 09:51:10;;;;;;;2.67;2.57;;;13.40;85.30;;;;;;5076825;28;20174;-75
2023/04/27 09:53:45;;;;;;;2.80;2.60;;;13.30;84.60;;;;;;5074864;28;20171;-74
2023/04/27 09:56:53;;;;;;;2.70;2.53;;;13.10;85.40;;;;;;5075921;28;20193;-75
2023/04/27 09:59:43;;;;;;;2.80;2.50;;;13.30;87.30;;;;;;5066818;28;20187;-76
2023/04/27 10:02:12;;;;;;;4.30;2.80;;;13.40;85.60;;;;;;5078769;28;20642;-74
2023/04/27 10:04:40;;;;;;;3.40;2.80;;;13.50;86.80;;;;;;5081957;28;20203;-75
2023/04/27 10:07:14;;;;;;;3.23;2.70;;;13.60;86.90;;;;;;5080111;28;20172;-74
2023/04/27 10:09:47;;;;;;;4.63;3.00;;;13.70;87.00;;;;;;5081169;28;20175;-75
2023/04/27 10:12:21;;;;;;;2.80;2.60;;;13.90;86.90;;;;;;5076850;28;20166;-76
2023/04/27 10:14:48;;;;;;;6.23;2.77;;;14.20;85.10;;;;;;5082858;28;20623;-74
2023/04/27 10:17:15;;;;;;;4.73;3.00;;;14.20;84.20;;;;;;5085597;28;20630;-74
2023/04/27 10:19:54;;;;;;;3.10;2.80;;;14.40;85.20;;;;;;5077636;28;20262;-73
2023/04/27 10:22:21;;;;;;;3.33;2.83;;;15.30;86.10;;;;;;5076163;28;20160;-74
2023/04/27 10:24:49;;;;;;;2.90;2.70;;;14.70;85.40;;;;;;5075580;28;20345;-76
2023/04/27 10:27:18;;;;;;;2.80;2.60;;;14.70;85.10;;;;;;5075901;28;20171;-73
2023/04/27 10:29:46;;;;;;;7.20;3.00;;;14.80;84.70;;;;;;5075863;28;20279;-75
2023/04/27 10:32:20;;;;;;;3.17;2.80;;;14.80;84.70;;;;;;5074417;28;20171;-76
2023/04/27 10:34:47;;;;;;;3.50;3.20;;;14.80;84.70;;;;;;5075535;28;20170;-74
2023/04/27 10:37:14;;;;;;;3.87;2.97;;;14.80;83.80;;;;;;5075614;28;20174;-75
2023/04/27 10:39:42;;;;;;;3.07;2.77;;;14.70;83.50;;;;;;5077414;28;20168;-77
2023/04/27 10:42:09;;;;;;;2.93;2.73;;;14.70;84.50;;;;;;5086147;28;20171;-77
2023/04/27 10:44:36;;;;;;;3.23;2.93;;;15.00;85.20;;;;;;5084288;28;20221;-74
2023/04/27 10:47:15;;;;;;;3.07;2.70;;;15.10;85.10;;;;;;5076384;28;20208;-75
2023/04/27 10:49:41;;;;;;;4.07;3.20;;;15.30;85.10;;;;;;5077993;28;20170;-74
2023/04/27 10:52:08;;;;;;;4.30;2.90;;;15.40;84.10;;;;;;5075618;28;20178;-75
2023/04/27 10:54:34;;;;;;;3.40;2.90;;;15.40;82.10;;;;;;5073109;28;20179;-75
2023/04/27 10:57:07;;;;;;;3.23;2.93;;;15.50;82.00;;;;;;5074974;28;20261;-75
2023/04/27 10:59:45;;;;;;;3.93;2.90;;;15.50;85.10;;;;;;5074417;28;20201;-74
2023/04/27 11:02:11;;;;;;;3.10;2.80;;;15.50;85.70;;;;;;5075074;28;20256;-74
2023/04/27 11:04:39;;;;;;;4.20;2.70;;;15.60;83.30;;;;;;5074678;28;20292;-75
2023/04/27 11:07:07;;;;;;;4.30;2.80;;;15.70;84.20;;;;;;5073179;28;20175;-74
2023/04/27 11:09:35;;;;;;;2.80;2.60;;;16.00;83.50;;;;;;5074812;28;20175;-75
2023/04/27 11:12:01;;;;;;;2.60;2.50;;;16.40;83.20;;;;;;5074279;28;20167;-74
2023/04/27 11:14:28;;;;;;;4.70;2.50;;;16.80;83.20;;;;;;5074113;28;20175;-75
2023/04/27 11:16:54;;;;;;;3.47;2.73;;;16.90;81.80;;;;;;5074297;28;20167;-75
2023/04/27 11:19:19;;;;;;;3.13;2.53;;;17.20;81.30;;;;;;5073519;28;20696;-74
2023/04/27 11:21:46;;;;;;;2.73;2.57;;;17.40;79.60;;;;;;5075037;28;20191;-75
2023/04/27 11:24:13;;;;;;;3.37;2.70;;;17.60;77.60;;;;;;5088434;28;20210;-74
2023/04/27 11:26:39;;;;;;;3.60;2.67;;;17.50;77.10;;;;;;5074490;28;20168;-74
2023/04/27 11:29:12;;;;;;;3.10;2.90;;;17.30;78.20;;;;;;5074146;28;20187;-75
2023/04/27 11:31:47;;;;;;;3.77;2.67;;;17.10;80.10;;;;;;5075148;28;20199;-74
2023/04/27 11:34:20;;;;;;;3.07;2.87;;;17.00;81.40;;;;;;5075178;28;20169;-76
2023/04/27 11:37:21;;;;;;;3.70;3.43;;;16.90;82.80;;;;;;5075489;28;20270;-74
2023/04/27 11:39:47;;;;;;;3.53;3.33;;;16.70;80.30;;;;;;5072999;28;20191;-74
2023/04/27 11:42:17;;;;;;;3.47;3.00;;;16.60;79.90;;;;;;5084150;28;20236;-74
2023/04/27 11:44:51;;;;;;;5.70;3.50;;;16.60;81.00;;;;;;5079432;28;20245;-74
2023/04/27 11:47:20;;;;;;;5.47;3.10;;;16.70;82.60;;;;;;5074361;28;20547;-75
2023/04/27 11:49:50;;;;;;;3.07;2.87;;;16.70;83.50;;;;;;5074129;28;20531;-74
2023/04/27 11:52:16;;;;;;;4.00;3.70;;;16.70;83.70;;;;;;5077550;28;20248;-74
2023/04/27 11:54:49;;;;;;;3.30;3.03;;;16.70;83.30;;;;;;5079368;28;20178;-75
2023/04/27 11:57:15;;;;;;;3.20;3.00;;;16.80;82.50;;;;;;5076029;28;20180;-74
2023/04/27 11:59:41;;;;;;;3.10;2.90;;;16.70;81.80;;;;;;5077638;28;20171;-74
2023/04/27 12:02:08;;;;;;;3.83;3.00;;;16.70;82.70;;;;;;5084069;28;20185;-74
2023/04/27 12:04:34;;;;;;;3.47;3.27;;;16.70;82.50;;;;;;5076933;28;20215;-75
2023/04/27 12:07:01;;;;;;;3.07;2.87;;;16.60;82.30;;;;;;5074815;28;20241;-76
2023/04/27 12:09:27;;;;;;;2.80;2.60;;;16.60;81.60;;;;;;5074001;28;20242;-73
2023/04/27 12:11:53;;;;;;;5.87;2.90;;;16.30;82.20;;;;;;5076137;28;20190;-74
2023/04/27 12:14:21;;;;;;;5.63;3.40;;;16.20;82.40;;;;;;5076446;28;20535;-74
2023/04/27 12:16:47;;;;;;;3.00;2.80;;;16.10;81.90;;;;;;5073551;28;20244;-75
2023/04/27 12:19:13;;;;;;;3.40;3.10;;;16.10;82.00;;;;;;5074470;28;20258;-76
2023/04/27 12:21:39;;;;;;;3.07;2.83;;;16.10;84.10;;;;;;5073728;28;20183;-75
2023/04/27 12:24:04;;;;;;;3.07;2.87;;;16.20;83.80;;;;;;5077155;28;20217;-75
2023/04/27 12:26:30;;;;;;;2.97;2.87;;;16.40;82.10;;;;;;5074968;28;20187;-75
2023/04/27 12:28:56;;;;;;;2.87;2.63;;;16.60;81.70;;;;;;5079424;28;20623;-76
2023/04/27 12:31:24;;;;;;;4.33;3.50;;;16.80;80.80;;;;;;5074079;28;20169;-74
2023/04/27 12:33:50;;;;;;;2.83;2.63;;;17.10;79.50;;;;;;5074151;28;20266;-74
2023/04/27 12:36:16;;;;;;;3.13;2.83;;;17.30;81.40;;;;;;5071544;28;20646;-74
2023/04/27 12:38:42;;;;;;;4.17;2.50;;;17.40;80.70;;;;;;5072774;28;20174;-75
2023/04/27 12:41:08;;;;;;;2.50;2.40;;;17.70;80.10;;;;;;5073370;28;20175;-76
2023/04/27 12:43:36;;;;;;;3.07;2.50;;;17.90;79.50;;;;;;5076393;28;20272;-75
2023/04/27 12:46:03;;;;;;;3.10;2.90;;;17.90;78.80;;;;;;5074032;28;20256;-76
2023/04/27 12:48:28;;;;;;;2.87;2.67;;;17.70;75.90;;;;;;5071737;28;20251;-76
2023/04/27 12:50:55;;;;;;;3.03;2.83;;;17.70;77.80;;;;;;5072835;28;20231;-75
2023/04/27 12:53:21;;;;;;;2.60;2.50;;;17.80;77.70;;;;;;5075927;28;20160;-76